sensor_id;sensor_type;location;lat;lon;timestamp;P1;durP1;ratioP1;P2;durP2;ratioP2
82022;SDS011;71575;49.908;18.356;2024-01-15T00:01:47;9.68;;;4.90;;
82022;SDS011;71575;49.908;18.356;2024-01-15T00:04:48;7.22;;;2.65;;
82022;SDS011;71575;49.908;18.356;2024-01-15T00:07:49;8.13;;;2.67;;
82022;SDS011;71575;49.908;18.356;2024-01-15T00:13:50;7.85;;;2.38;;
82022;SDS011;71575;49.908;18.356;2024-01-15T00:16:51;8.07;;;2.53;;
82022;SDS011;71575;49.908;18.356;2024-01-15T00:19:52;9.00;;;2.60;;
82022;SDS011;71575;49.908;18.356;2024-01-15T00:22:53;9.27;;;2.45;;
82022;SDS011;71575;49.908;18.356;2024-01-15T00:25:53;9.90;;;3.25;;
82022;SDS011;71575;49.908;18.356;2024-01-15T00:28:54;8.55;;;2.88;;
82022;SDS011;71575;49.908;18.356;2024-01-15T00:31:56;6.88;;;2.33;;
82022;SDS011;71575;49.908;18.356;2024-01-15T00:34:57;8.00;;;2.55;;
82022;SDS011;71575;49.908;18.356;2024-01-15T00:37:57;8.80;;;2.45;;
82022;SDS011;71575;49.908;18.356;2024-01-15T00:40:58;8.45;;;2.53;;
82022;SDS011;71575;49.908;18.356;2024-01-15T00:44:00;6.43;;;2.08;;
82022;SDS011;71575;49.908;18.356;2024-01-15T00:50:02;7.13;;;2.65;;
82022;SDS011;71575;49.908;18.356;2024-01-15T00:53:03;8.70;;;2.72;;
82022;SDS011;71575;49.908;18.356;2024-01-15T00:56:03;7.70;;;2.35;;
82022;SDS011;71575;49.908;18.356;2024-01-15T00:59:04;6.45;;;2.53;;
82022;SDS011;71575;49.908;18.356;2024-01-15T01:02:05;8.07;;;3.00;;
82022;SDS011;71575;49.908;18.356;2024-01-15T01:05:06;6.50;;;2.70;;
82022;SDS011;71575;49.908;18.356;2024-01-15T01:11:07;7.72;;;1.77;;
82022;SDS011;71575;49.908;18.356;2024-01-15T01:17:08;7.82;;;2.25;;
82022;SDS011;71575;49.908;18.356;2024-01-15T01:20:09;8.80;;;2.42;;
82022;SDS011;71575;49.908;18.356;2024-01-15T01:23:10;7.30;;;2.38;;
82022;SDS011;71575;49.908;18.356;2024-01-15T01:29:12;8.25;;;1.92;;
82022;SDS011;71575;49.908;18.356;2024-01-15T01:35:14;7.63;;;1.83;;
82022;SDS011;71575;49.908;18.356;2024-01-15T01:38:14;7.55;;;2.05;;
82022;SDS011;71575;49.908;18.356;2024-01-15T01:44:15;7.25;;;1.63;;
82022;SDS011;71575;49.908;18.356;2024-01-15T01:47:16;9.43;;;2.90;;
82022;SDS011;71575;49.908;18.356;2024-01-15T01:53:17;9.73;;;2.25;;
82022;SDS011;71575;49.908;18.356;2024-01-15T01:59:19;9.32;;;2.35;;
82022;SDS011;71575;49.908;18.356;2024-01-15T02:05:21;6.93;;;2.00;;
82022;SDS011;71575;49.908;18.356;2024-01-15T02:08:22;6.38;;;1.40;;
82022;SDS011;71575;49.908;18.356;2024-01-15T02:14:23;6.70;;;1.77;;
82022;SDS011;71575;49.908;18.356;2024-01-15T02:17:24;5.90;;;1.42;;
82022;SDS011;71575;49.908;18.356;2024-01-15T02:20:25;9.15;;;2.38;;
82022;SDS011;71575;49.908;18.356;2024-01-15T02:23:26;7.07;;;1.50;;
82022;SDS011;71575;49.908;18.356;2024-01-15T02:29:27;8.10;;;2.28;;
82022;SDS011;71575;49.908;18.356;2024-01-15T02:32:28;6.07;;;1.90;;
82022;SDS011;71575;49.908;18.356;2024-01-15T02:35:31;7.30;;;1.77;;
82022;SDS011;71575;49.908;18.356;2024-01-15T02:41:32;6.68;;;1.50;;
82022;SDS011;71575;49.908;18.356;2024-01-15T02:44:33;7.25;;;1.58;;
82022;SDS011;71575;49.908;18.356;2024-01-15T02:47:34;6.03;;;1.63;;
82022;SDS011;71575;49.908;18.356;2024-01-15T02:50:34;6.85;;;2.08;;
82022;SDS011;71575;49.908;18.356;2024-01-15T02:53:36;7.85;;;2.40;;
82022;SDS011;71575;49.908;18.356;2024-01-15T02:56:36;7.10;;;2.55;;
82022;SDS011;71575;49.908;18.356;2024-01-15T02:59:37;6.97;;;1.58;;
82022;SDS011;71575;49.908;18.356;2024-01-15T03:02:38;6.78;;;1.75;;
82022;SDS011;71575;49.908;18.356;2024-01-15T03:05:40;6.45;;;2.47;;
82022;SDS011;71575;49.908;18.356;2024-01-15T03:08:41;7.47;;;1.50;;
82022;SDS011;71575;49.908;18.356;2024-01-15T03:11:41;5.78;;;1.98;;
82022;SDS011;71575;49.908;18.356;2024-01-15T03:14:42;7.38;;;1.75;;
82022;SDS011;71575;49.908;18.356;2024-01-15T03:17:43;6.95;;;2.05;;
82022;SDS011;71575;49.908;18.356;2024-01-15T03:20:44;6.93;;;1.95;;
82022;SDS011;71575;49.908;18.356;2024-01-15T03:23:45;7.50;;;1.85;;
82022;SDS011;71575;49.908;18.356;2024-01-15T03:26:45;6.18;;;1.38;;
82022;SDS011;71575;49.908;18.356;2024-01-15T03:29:46;6.97;;;2.05;;
82022;SDS011;71575;49.908;18.356;2024-01-15T03:32:47;8.23;;;1.52;;
82022;SDS011;71575;49.908;18.356;2024-01-15T03:35:48;6.97;;;1.55;;
82022;SDS011;71575;49.908;18.356;2024-01-15T03:38:48;7.10;;;1.55;;
82022;SDS011;71575;49.908;18.356;2024-01-15T03:44:51;7.35;;;1.45;;
82022;SDS011;71575;49.908;18.356;2024-01-15T03:50:52;7.72;;;1.90;;
82022;SDS011;71575;49.908;18.356;2024-01-15T03:53:53;7.03;;;2.22;;
82022;SDS011;71575;49.908;18.356;2024-01-15T03:59:54;6.53;;;1.80;;
82022;SDS011;71575;49.908;18.356;2024-01-15T04:05:55;7.35;;;2.47;;
82022;SDS011;71575;49.908;18.356;2024-01-15T04:11:57;6.20;;;2.40;;
82022;SDS011;71575;49.908;18.356;2024-01-15T04:14:57;6.00;;;1.73;;
82022;SDS011;71575;49.908;18.356;2024-01-15T04:17:58;7.40;;;1.80;;
82022;SDS011;71575;49.908;18.356;2024-01-15T04:20:59;9.02;;;2.83;;
82022;SDS011;71575;49.908;18.356;2024-01-15T04:24:01;10.30;;;2.25;;
82022;SDS011;71575;49.908;18.356;2024-01-15T04:30:04;7.00;;;1.48;;
82022;SDS011;71575;49.908;18.356;2024-01-15T04:33:05;8.95;;;2.42;;
82022;SDS011;71575;49.908;18.356;2024-01-15T04:39:07;7.88;;;2.55;;
82022;SDS011;71575;49.908;18.356;2024-01-15T04:42:09;8.52;;;2.30;;
82022;SDS011;71575;49.908;18.356;2024-01-15T04:48:12;6.75;;;2.30;;
82022;SDS011;71575;49.908;18.356;2024-01-15T04:51:12;8.43;;;2.05;;
82022;SDS011;71575;49.908;18.356;2024-01-15T04:54:21;8.25;;;2.40;;
82022;SDS011;71575;49.908;18.356;2024-01-15T05:00:22;10.20;;;2.33;;
82022;SDS011;71575;49.908;18.356;2024-01-15T05:06:23;6.32;;;1.50;;
82022;SDS011;71575;49.908;18.356;2024-01-15T05:12:24;8.02;;;2.28;;
82022;SDS011;71575;49.908;18.356;2024-01-15T05:18:26;6.70;;;1.67;;
82022;SDS011;71575;49.908;18.356;2024-01-15T05:21:26;6.72;;;2.03;;
82022;SDS011;71575;49.908;18.356;2024-01-15T05:24:27;7.05;;;2.25;;
82022;SDS011;71575;49.908;18.356;2024-01-15T05:27:28;7.80;;;1.92;;
82022;SDS011;71575;49.908;18.356;2024-01-15T05:33:29;9.73;;;2.75;;
82022;SDS011;71575;49.908;18.356;2024-01-15T05:39:31;8.27;;;2.60;;
82022;SDS011;71575;49.908;18.356;2024-01-15T05:42:32;8.75;;;3.30;;
82022;SDS011;71575;49.908;18.356;2024-01-15T05:48:34;10.60;;;3.40;;
82022;SDS011;71575;49.908;18.356;2024-01-15T05:54:36;11.43;;;2.80;;
82022;SDS011;71575;49.908;18.356;2024-01-15T05:57:36;9.52;;;2.80;;
82022;SDS011;71575;49.908;18.356;2024-01-15T06:03:38;9.63;;;4.10;;
82022;SDS011;71575;49.908;18.356;2024-01-15T06:09:39;10.75;;;4.68;;
82022;SDS011;71575;49.908;18.356;2024-01-15T06:15:41;11.13;;;4.47;;
82022;SDS011;71575;49.908;18.356;2024-01-15T06:18:45;11.40;;;6.28;;
82022;SDS011;71575;49.908;18.356;2024-01-15T06:21:46;10.18;;;3.20;;
82022;SDS011;71575;49.908;18.356;2024-01-15T06:27:50;9.60;;;2.90;;
82022;SDS011;71575;49.908;18.356;2024-01-15T06:33:52;10.93;;;3.45;;
82022;SDS011;71575;49.908;18.356;2024-01-15T06:39:53;9.50;;;3.83;;
82022;SDS011;71575;49.908;18.356;2024-01-15T06:45:54;10.75;;;3.67;;
82022;SDS011;71575;49.908;18.356;2024-01-15T06:51:56;10.35;;;4.00;;
82022;SDS011;71575;49.908;18.356;2024-01-15T06:57:57;10.13;;;3.97;;
82022;SDS011;71575;49.908;18.356;2024-01-15T07:03:59;9.20;;;3.00;;
82022;SDS011;71575;49.908;18.356;2024-01-15T07:10:00;8.63;;;2.42;;
82022;SDS011;71575;49.908;18.356;2024-01-15T07:16:02;9.27;;;3.03;;
82022;SDS011;71575;49.908;18.356;2024-01-15T07:22:07;12.27;;;3.97;;
82022;SDS011;71575;49.908;18.356;2024-01-15T07:25:09;9.57;;;4.00;;
82022;SDS011;71575;49.908;18.356;2024-01-15T07:31:10;10.27;;;3.72;;
82022;SDS011;71575;49.908;18.356;2024-01-15T07:37:11;11.63;;;3.20;;
82022;SDS011;71575;49.908;18.356;2024-01-15T07:40:13;9.55;;;3.33;;
82022;SDS011;71575;49.908;18.356;2024-01-15T07:46:15;9.52;;;3.47;;
82022;SDS011;71575;49.908;18.356;2024-01-15T07:52:17;11.77;;;3.53;;
82022;SDS011;71575;49.908;18.356;2024-01-15T07:58:18;11.00;;;3.17;;
82022;SDS011;71575;49.908;18.356;2024-01-15T08:04:19;12.45;;;4.15;;
82022;SDS011;71575;49.908;18.356;2024-01-15T08:07:20;11.40;;;4.80;;
82022;SDS011;71575;49.908;18.356;2024-01-15T08:13:26;10.18;;;2.80;;
82022;SDS011;71575;49.908;18.356;2024-01-15T08:16:27;11.25;;;4.00;;
82022;SDS011;71575;49.908;18.356;2024-01-15T08:22:28;8.85;;;3.83;;
82022;SDS011;71575;49.908;18.356;2024-01-15T08:25:29;12.80;;;5.15;;
82022;SDS011;71575;49.908;18.356;2024-01-15T08:28:29;10.70;;;2.97;;
82022;SDS011;71575;49.908;18.356;2024-01-15T08:31:30;10.13;;;3.92;;
82022;SDS011;71575;49.908;18.356;2024-01-15T08:34:31;13.43;;;4.57;;
82022;SDS011;71575;49.908;18.356;2024-01-15T08:37:32;12.13;;;4.22;;
82022;SDS011;71575;49.908;18.356;2024-01-15T08:40:32;16.52;;;8.13;;
82022;SDS011;71575;49.908;18.356;2024-01-15T08:43:34;14.70;;;6.03;;
82022;SDS011;71575;49.908;18.356;2024-01-15T08:46:35;10.25;;;4.10;;
82022;SDS011;71575;49.908;18.356;2024-01-15T08:52:36;11.90;;;4.13;;
82022;SDS011;71575;49.908;18.356;2024-01-15T08:55:37;11.40;;;4.38;;
82022;SDS011;71575;49.908;18.356;2024-01-15T08:58:37;11.88;;;4.90;;
82022;SDS011;71575;49.908;18.356;2024-01-15T09:01:38;14.65;;;5.22;;
82022;SDS011;71575;49.908;18.356;2024-01-15T09:04:39;10.80;;;4.40;;
82022;SDS011;71575;49.908;18.356;2024-01-15T09:07:40;12.13;;;4.70;;
82022;SDS011;71575;49.908;18.356;2024-01-15T09:10:40;12.35;;;4.45;;
82022;SDS011;71575;49.908;18.356;2024-01-15T09:13:41;11.30;;;4.03;;
82022;SDS011;71575;49.908;18.356;2024-01-15T09:16:42;13.68;;;4.78;;
82022;SDS011;71575;49.908;18.356;2024-01-15T09:19:42;13.65;;;4.75;;
82022;SDS011;71575;49.908;18.356;2024-01-15T09:22:43;13.57;;;5.63;;
82022;SDS011;71575;49.908;18.356;2024-01-15T09:25:44;13.30;;;5.03;;
82022;SDS011;71575;49.908;18.356;2024-01-15T09:28:44;13.45;;;6.15;;
82022;SDS011;71575;49.908;18.356;2024-01-15T09:31:45;14.70;;;5.38;;
82022;SDS011;71575;49.908;18.356;2024-01-15T09:34:46;12.50;;;5.78;;
82022;SDS011;71575;49.908;18.356;2024-01-15T09:37:47;13.57;;;4.22;;
82022;SDS011;71575;49.908;18.356;2024-01-15T09:40:49;15.10;;;5.18;;
82022;SDS011;71575;49.908;18.356;2024-01-15T09:43:51;14.00;;;5.78;;
82022;SDS011;71575;49.908;18.356;2024-01-15T09:46:51;13.50;;;4.78;;
82022;SDS011;71575;49.908;18.356;2024-01-15T09:49:52;13.82;;;5.70;;
82022;SDS011;71575;49.908;18.356;2024-01-15T09:52:53;13.93;;;5.25;;
82022;SDS011;71575;49.908;18.356;2024-01-15T09:55:54;13.02;;;5.63;;
82022;SDS011;71575;49.908;18.356;2024-01-15T09:58:55;11.77;;;4.57;;
82022;SDS011;71575;49.908;18.356;2024-01-15T10:01:59;13.98;;;4.53;;
82022;SDS011;71575;49.908;18.356;2024-01-15T10:05:00;16.10;;;5.07;;
82022;SDS011;71575;49.908;18.356;2024-01-15T10:08:01;12.88;;;4.40;;
82022;SDS011;71575;49.908;18.356;2024-01-15T10:11:03;14.02;;;5.13;;
82022;SDS011;71575;49.908;18.356;2024-01-15T10:14:04;14.73;;;5.35;;
82022;SDS011;71575;49.908;18.356;2024-01-15T10:17:23;14.02;;;5.35;;
82022;SDS011;71575;49.908;18.356;2024-01-15T10:20:25;12.95;;;5.07;;
82022;SDS011;71575;49.908;18.356;2024-01-15T10:23:25;12.30;;;4.63;;
82022;SDS011;71575;49.908;18.356;2024-01-15T10:26:26;15.68;;;6.65;;
82022;SDS011;71575;49.908;18.356;2024-01-15T10:29:27;15.10;;;6.22;;
82022;SDS011;71575;49.908;18.356;2024-01-15T10:32:28;14.38;;;7.18;;
82022;SDS011;71575;49.908;18.356;2024-01-15T10:35:29;14.73;;;5.45;;
82022;SDS011;71575;49.908;18.356;2024-01-15T10:38:31;14.57;;;6.28;;
82022;SDS011;71575;49.908;18.356;2024-01-15T10:41:33;15.00;;;5.93;;
82022;SDS011;71575;49.908;18.356;2024-01-15T10:44:34;15.35;;;6.45;;
82022;SDS011;71575;49.908;18.356;2024-01-15T10:47:35;15.45;;;6.03;;
82022;SDS011;71575;49.908;18.356;2024-01-15T10:50:36;14.95;;;6.70;;
82022;SDS011;71575;49.908;18.356;2024-01-15T10:53:38;16.45;;;5.55;;
82022;SDS011;71575;49.908;18.356;2024-01-15T10:56:39;17.45;;;7.45;;
82022;SDS011;71575;49.908;18.356;2024-01-15T10:59:40;19.95;;;6.75;;
82022;SDS011;71575;49.908;18.356;2024-01-15T11:02:41;15.80;;;5.82;;
82022;SDS011;71575;49.908;18.356;2024-01-15T11:05:42;13.90;;;5.60;;
82022;SDS011;71575;49.908;18.356;2024-01-15T11:08:48;17.55;;;6.43;;
82022;SDS011;71575;49.908;18.356;2024-01-15T11:12:06;16.15;;;5.90;;
82022;SDS011;71575;49.908;18.356;2024-01-15T11:15:10;16.13;;;6.63;;
82022;SDS011;71575;49.908;18.356;2024-01-15T11:18:19;16.73;;;6.90;;
82022;SDS011;71575;49.908;18.356;2024-01-15T11:21:20;15.43;;;7.72;;
82022;SDS011;71575;49.908;18.356;2024-01-15T11:24:34;17.75;;;7.07;;
82022;SDS011;71575;49.908;18.356;2024-01-15T11:27:47;17.30;;;6.65;;
82022;SDS011;71575;49.908;18.356;2024-01-15T11:30:48;14.68;;;6.05;;
82022;SDS011;71575;49.908;18.356;2024-01-15T11:33:49;15.60;;;6.13;;
82022;SDS011;71575;49.908;18.356;2024-01-15T11:39:56;13.18;;;6.13;;
82022;SDS011;71575;49.908;18.356;2024-01-15T11:43:01;13.27;;;5.63;;
82022;SDS011;71575;49.908;18.356;2024-01-15T11:46:03;15.20;;;6.97;;
82022;SDS011;71575;49.908;18.356;2024-01-15T11:49:03;17.98;;;6.82;;
82022;SDS011;71575;49.908;18.356;2024-01-15T11:52:05;16.95;;;8.43;;
82022;SDS011;71575;49.908;18.356;2024-01-15T11:58:19;13.93;;;6.20;;
82022;SDS011;71575;49.908;18.356;2024-01-15T12:01:20;15.23;;;6.32;;
82022;SDS011;71575;49.908;18.356;2024-01-15T12:04:21;16.90;;;6.80;;
82022;SDS011;71575;49.908;18.356;2024-01-15T12:07:22;14.73;;;6.00;;
82022;SDS011;71575;49.908;18.356;2024-01-15T12:10:23;16.67;;;6.47;;
82022;SDS011;71575;49.908;18.356;2024-01-15T12:13:23;14.65;;;5.65;;
82022;SDS011;71575;49.908;18.356;2024-01-15T12:16:24;15.68;;;6.72;;
82022;SDS011;71575;49.908;18.356;2024-01-15T12:19:25;14.20;;;6.00;;
82022;SDS011;71575;49.908;18.356;2024-01-15T12:22:26;14.90;;;7.47;;
82022;SDS011;71575;49.908;18.356;2024-01-15T12:25:26;12.45;;;5.10;;
82022;SDS011;71575;49.908;18.356;2024-01-15T12:28:29;13.18;;;5.82;;
82022;SDS011;71575;49.908;18.356;2024-01-15T12:31:30;12.88;;;5.55;;
82022;SDS011;71575;49.908;18.356;2024-01-15T12:34:35;14.45;;;7.00;;
82022;SDS011;71575;49.908;18.356;2024-01-15T12:37:39;13.20;;;5.40;;
82022;SDS011;71575;49.908;18.356;2024-01-15T12:40:40;12.07;;;4.25;;
82022;SDS011;71575;49.908;18.356;2024-01-15T12:43:44;13.48;;;5.40;;
82022;SDS011;71575;49.908;18.356;2024-01-15T12:46:45;12.20;;;6.35;;
82022;SDS011;71575;49.908;18.356;2024-01-15T12:49:46;11.68;;;4.00;;
82022;SDS011;71575;49.908;18.356;2024-01-15T12:52:47;11.00;;;4.18;;
82022;SDS011;71575;49.908;18.356;2024-01-15T12:55:48;14.68;;;5.20;;
82022;SDS011;71575;49.908;18.356;2024-01-15T12:58:49;10.73;;;2.97;;
82022;SDS011;71575;49.908;18.356;2024-01-15T13:01:49;9.75;;;3.70;;
82022;SDS011;71575;49.908;18.356;2024-01-15T13:04:53;12.15;;;3.67;;
82022;SDS011;71575;49.908;18.356;2024-01-15T13:07:54;9.45;;;3.60;;
82022;SDS011;71575;49.908;18.356;2024-01-15T13:10:55;13.73;;;4.80;;
82022;SDS011;71575;49.908;18.356;2024-01-15T13:13:56;11.20;;;5.22;;
82022;SDS011;71575;49.908;18.356;2024-01-15T13:16:58;10.93;;;3.88;;
82022;SDS011;71575;49.908;18.356;2024-01-15T13:19:59;13.05;;;3.58;;
82022;SDS011;71575;49.908;18.356;2024-01-15T13:22:59;14.05;;;4.80;;
82022;SDS011;71575;49.908;18.356;2024-01-15T13:26:00;9.77;;;3.35;;
82022;SDS011;71575;49.908;18.356;2024-01-15T13:29:01;11.63;;;3.67;;
82022;SDS011;71575;49.908;18.356;2024-01-15T13:32:02;15.63;;;6.93;;
82022;SDS011;71575;49.908;18.356;2024-01-15T13:35:03;10.40;;;3.95;;
82022;SDS011;71575;49.908;18.356;2024-01-15T13:38:04;11.38;;;5.45;;
82022;SDS011;71575;49.908;18.356;2024-01-15T13:41:05;9.27;;;3.40;;
82022;SDS011;71575;49.908;18.356;2024-01-15T13:44:06;11.25;;;4.03;;
82022;SDS011;71575;49.908;18.356;2024-01-15T13:47:07;11.63;;;5.30;;
82022;SDS011;71575;49.908;18.356;2024-01-15T13:50:07;12.43;;;4.72;;
82022;SDS011;71575;49.908;18.356;2024-01-15T13:53:08;10.88;;;4.25;;
82022;SDS011;71575;49.908;18.356;2024-01-15T13:56:09;9.85;;;3.28;;
82022;SDS011;71575;49.908;18.356;2024-01-15T13:59:12;12.75;;;5.55;;
82022;SDS011;71575;49.908;18.356;2024-01-15T14:02:13;8.52;;;3.38;;
82022;SDS011;71575;49.908;18.356;2024-01-15T14:05:14;11.73;;;4.07;;
82022;SDS011;71575;49.908;18.356;2024-01-15T14:08:15;11.88;;;6.15;;
82022;SDS011;71575;49.908;18.356;2024-01-15T14:11:16;15.73;;;4.22;;
82022;SDS011;71575;49.908;18.356;2024-01-15T14:14:18;11.75;;;4.25;;
82022;SDS011;71575;49.908;18.356;2024-01-15T14:17:18;11.52;;;4.30;;
82022;SDS011;71575;49.908;18.356;2024-01-15T14:20:19;10.15;;;3.58;;
82022;SDS011;71575;49.908;18.356;2024-01-15T14:23:21;14.15;;;4.15;;
82022;SDS011;71575;49.908;18.356;2024-01-15T14:26:22;11.98;;;4.68;;
82022;SDS011;71575;49.908;18.356;2024-01-15T14:29:23;9.70;;;3.45;;
82022;SDS011;71575;49.908;18.356;2024-01-15T14:32:23;9.23;;;4.03;;
82022;SDS011;71575;49.908;18.356;2024-01-15T14:35:25;9.55;;;2.85;;
82022;SDS011;71575;49.908;18.356;2024-01-15T14:38:27;9.73;;;4.93;;
82022;SDS011;71575;49.908;18.356;2024-01-15T14:41:27;10.38;;;3.85;;
82022;SDS011;71575;49.908;18.356;2024-01-15T14:44:28;9.82;;;4.60;;
82022;SDS011;71575;49.908;18.356;2024-01-15T14:47:30;8.45;;;3.40;;
82022;SDS011;71575;49.908;18.356;2024-01-15T14:50:32;12.00;;;4.22;;
82022;SDS011;71575;49.908;18.356;2024-01-15T14:53:34;11.18;;;3.85;;
82022;SDS011;71575;49.908;18.356;2024-01-15T14:56:38;11.48;;;4.10;;
82022;SDS011;71575;49.908;18.356;2024-01-15T14:59:41;9.73;;;3.55;;
82022;SDS011;71575;49.908;18.356;2024-01-15T15:02:42;10.13;;;3.50;;
82022;SDS011;71575;49.908;18.356;2024-01-15T15:05:43;9.00;;;3.00;;
82022;SDS011;71575;49.908;18.356;2024-01-15T15:08:46;9.60;;;3.70;;
82022;SDS011;71575;49.908;18.356;2024-01-15T15:11:46;10.73;;;5.38;;
82022;SDS011;71575;49.908;18.356;2024-01-15T15:14:47;11.85;;;3.75;;
82022;SDS011;71575;49.908;18.356;2024-01-15T15:17:48;9.15;;;2.75;;
82022;SDS011;71575;49.908;18.356;2024-01-15T15:20:49;9.73;;;3.33;;
82022;SDS011;71575;49.908;18.356;2024-01-15T15:23:51;12.07;;;4.00;;
82022;SDS011;71575;49.908;18.356;2024-01-15T15:26:52;9.55;;;3.65;;
82022;SDS011;71575;49.908;18.356;2024-01-15T15:29:53;9.40;;;3.53;;
82022;SDS011;71575;49.908;18.356;2024-01-15T15:32:53;8.48;;;3.83;;
82022;SDS011;71575;49.908;18.356;2024-01-15T15:35:56;9.00;;;2.60;;
82022;SDS011;71575;49.908;18.356;2024-01-15T15:38:57;11.05;;;2.90;;
82022;SDS011;71575;49.908;18.356;2024-01-15T15:41:58;8.50;;;3.03;;
82022;SDS011;71575;49.908;18.356;2024-01-15T15:44:59;7.95;;;3.30;;
82022;SDS011;71575;49.908;18.356;2024-01-15T15:48:01;9.02;;;2.85;;
82022;SDS011;71575;49.908;18.356;2024-01-15T15:51:01;8.93;;;2.78;;
82022;SDS011;71575;49.908;18.356;2024-01-15T15:54:06;8.27;;;2.83;;
82022;SDS011;71575;49.908;18.356;2024-01-15T15:57:10;8.00;;;2.78;;
82022;SDS011;71575;49.908;18.356;2024-01-15T16:00:11;8.25;;;2.33;;
82022;SDS011;71575;49.908;18.356;2024-01-15T16:03:15;7.75;;;2.65;;
82022;SDS011;71575;49.908;18.356;2024-01-15T16:06:16;6.72;;;1.77;;
82022;SDS011;71575;49.908;18.356;2024-01-15T16:09:16;9.05;;;3.33;;
82022;SDS011;71575;49.908;18.356;2024-01-15T16:12:17;9.05;;;2.65;;
82022;SDS011;71575;49.908;18.356;2024-01-15T16:15:21;8.85;;;5.03;;
82022;SDS011;71575;49.908;18.356;2024-01-15T16:18:22;7.30;;;2.13;;
82022;SDS011;71575;49.908;18.356;2024-01-15T16:21:23;8.95;;;2.47;;
82022;SDS011;71575;49.908;18.356;2024-01-15T16:24:24;7.75;;;2.28;;
82022;SDS011;71575;49.908;18.356;2024-01-15T16:27:24;6.82;;;1.77;;
82022;SDS011;71575;49.908;18.356;2024-01-15T16:30:25;8.20;;;2.63;;
82022;SDS011;71575;49.908;18.356;2024-01-15T16:33:26;8.57;;;2.70;;
82022;SDS011;71575;49.908;18.356;2024-01-15T16:36:27;8.25;;;2.17;;
82022;SDS011;71575;49.908;18.356;2024-01-15T16:39:27;9.30;;;3.78;;
82022;SDS011;71575;49.908;18.356;2024-01-15T16:42:28;10.05;;;2.55;;
82022;SDS011;71575;49.908;18.356;2024-01-15T16:45:29;8.40;;;1.92;;
82022;SDS011;71575;49.908;18.356;2024-01-15T16:48:30;7.93;;;1.95;;
82022;SDS011;71575;49.908;18.356;2024-01-15T16:51:30;8.43;;;2.08;;
82022;SDS011;71575;49.908;18.356;2024-01-15T16:54:32;7.43;;;2.53;;
82022;SDS011;71575;49.908;18.356;2024-01-15T16:57:33;7.97;;;2.83;;
82022;SDS011;71575;49.908;18.356;2024-01-15T17:00:39;9.20;;;3.00;;
82022;SDS011;71575;49.908;18.356;2024-01-15T17:03:39;9.88;;;3.63;;
82022;SDS011;71575;49.908;18.356;2024-01-15T17:06:40;9.43;;;2.92;;
82022;SDS011;71575;49.908;18.356;2024-01-15T17:09:41;17.90;;;5.00;;
82022;SDS011;71575;49.908;18.356;2024-01-15T17:12:44;10.77;;;3.10;;
82022;SDS011;71575;49.908;18.356;2024-01-15T17:15:44;9.52;;;3.10;;
82022;SDS011;71575;49.908;18.356;2024-01-15T17:18:45;7.40;;;2.10;;
82022;SDS011;71575;49.908;18.356;2024-01-15T17:21:46;7.88;;;2.78;;
82022;SDS011;71575;49.908;18.356;2024-01-15T17:24:46;6.38;;;2.33;;
82022;SDS011;71575;49.908;18.356;2024-01-15T17:27:47;7.70;;;3.13;;
82022;SDS011;71575;49.908;18.356;2024-01-15T17:30:48;8.90;;;2.53;;
82022;SDS011;71575;49.908;18.356;2024-01-15T17:33:49;7.93;;;2.13;;
82022;SDS011;71575;49.908;18.356;2024-01-15T17:36:49;7.68;;;2.97;;
82022;SDS011;71575;49.908;18.356;2024-01-15T17:39:51;9.85;;;3.35;;
82022;SDS011;71575;49.908;18.356;2024-01-15T17:42:53;8.20;;;2.95;;
82022;SDS011;71575;49.908;18.356;2024-01-15T17:45:54;9.13;;;2.53;;
82022;SDS011;71575;49.908;18.356;2024-01-15T17:48:55;8.23;;;3.50;;
82022;SDS011;71575;49.908;18.356;2024-01-15T17:51:55;7.38;;;2.67;;
82022;SDS011;71575;49.908;18.356;2024-01-15T17:54:57;7.38;;;2.33;;
82022;SDS011;71575;49.908;18.356;2024-01-15T17:57:57;5.85;;;1.90;;
82022;SDS011;71575;49.908;18.356;2024-01-15T18:00:58;7.95;;;2.65;;
82022;SDS011;71575;49.908;18.356;2024-01-15T18:03:59;6.68;;;2.15;;
82022;SDS011;71575;49.908;18.356;2024-01-15T18:07:01;8.20;;;2.92;;
82022;SDS011;71575;49.908;18.356;2024-01-15T18:10:02;10.95;;;2.55;;
82022;SDS011;71575;49.908;18.356;2024-01-15T18:13:03;7.72;;;2.17;;
82022;SDS011;71575;49.908;18.356;2024-01-15T18:16:04;8.68;;;2.35;;
82022;SDS011;71575;49.908;18.356;2024-01-15T18:19:05;9.98;;;3.03;;
82022;SDS011;71575;49.908;18.356;2024-01-15T18:22:05;8.73;;;3.90;;
82022;SDS011;71575;49.908;18.356;2024-01-15T18:25:06;8.63;;;3.25;;
82022;SDS011;71575;49.908;18.356;2024-01-15T18:28:08;10.43;;;3.70;;
82022;SDS011;71575;49.908;18.356;2024-01-15T18:31:09;8.98;;;3.58;;
82022;SDS011;71575;49.908;18.356;2024-01-15T18:34:09;8.80;;;2.75;;
82022;SDS011;71575;49.908;18.356;2024-01-15T18:37:10;11.13;;;4.28;;
82022;SDS011;71575;49.908;18.356;2024-01-15T18:40:11;10.98;;;3.95;;
82022;SDS011;71575;49.908;18.356;2024-01-15T18:43:12;9.70;;;3.33;;
82022;SDS011;71575;49.908;18.356;2024-01-15T18:46:14;11.77;;;4.72;;
82022;SDS011;71575;49.908;18.356;2024-01-15T18:49:15;9.75;;;4.55;;
82022;SDS011;71575;49.908;18.356;2024-01-15T18:52:16;7.80;;;3.63;;
82022;SDS011;71575;49.908;18.356;2024-01-15T18:55:16;10.57;;;4.53;;
82022;SDS011;71575;49.908;18.356;2024-01-15T18:58:17;9.38;;;4.15;;
82022;SDS011;71575;49.908;18.356;2024-01-15T19:01:27;10.52;;;2.78;;
82022;SDS011;71575;49.908;18.356;2024-01-15T19:04:31;8.75;;;3.05;;
82022;SDS011;71575;49.908;18.356;2024-01-15T19:07:35;10.68;;;4.53;;
82022;SDS011;71575;49.908;18.356;2024-01-15T19:10:36;8.82;;;3.55;;
82022;SDS011;71575;49.908;18.356;2024-01-15T19:13:37;9.13;;;3.55;;
82022;SDS011;71575;49.908;18.356;2024-01-15T19:16:37;9.07;;;3.53;;
82022;SDS011;71575;49.908;18.356;2024-01-15T19:19:39;7.60;;;2.75;;
82022;SDS011;71575;49.908;18.356;2024-01-15T19:22:43;11.27;;;4.07;;
82022;SDS011;71575;49.908;18.356;2024-01-15T19:25:44;8.90;;;3.47;;
82022;SDS011;71575;49.908;18.356;2024-01-15T19:31:46;10.80;;;4.25;;
82022;SDS011;71575;49.908;18.356;2024-01-15T19:34:48;7.03;;;2.72;;
82022;SDS011;71575;49.908;18.356;2024-01-15T19:37:49;9.70;;;3.15;;
82022;SDS011;71575;49.908;18.356;2024-01-15T19:43:52;6.93;;;2.75;;
82022;SDS011;71575;49.908;18.356;2024-01-15T19:46:53;7.93;;;3.13;;
82022;SDS011;71575;49.908;18.356;2024-01-15T19:52:54;7.35;;;2.38;;
82022;SDS011;71575;49.908;18.356;2024-01-15T19:55:55;7.72;;;3.15;;
82022;SDS011;71575;49.908;18.356;2024-01-15T19:58:56;7.68;;;2.33;;
82022;SDS011;71575;49.908;18.356;2024-01-15T20:01:57;6.13;;;1.77;;
82022;SDS011;71575;49.908;18.356;2024-01-15T20:04:58;6.78;;;2.10;;
82022;SDS011;71575;49.908;18.356;2024-01-15T20:10:59;9.52;;;1.92;;
82022;SDS011;71575;49.908;18.356;2024-01-15T20:14:01;7.97;;;3.10;;
82022;SDS011;71575;49.908;18.356;2024-01-15T20:20:04;6.70;;;2.35;;
82022;SDS011;71575;49.908;18.356;2024-01-15T20:23:07;7.28;;;2.22;;
82022;SDS011;71575;49.908;18.356;2024-01-15T20:26:09;8.07;;;2.83;;
82022;SDS011;71575;49.908;18.356;2024-01-15T20:32:10;7.00;;;2.00;;
82022;SDS011;71575;49.908;18.356;2024-01-15T20:35:20;8.35;;;4.70;;
82022;SDS011;71575;49.908;18.356;2024-01-15T20:38:28;9.23;;;2.95;;
82022;SDS011;71575;49.908;18.356;2024-01-15T20:41:30;8.05;;;2.40;;
82022;SDS011;71575;49.908;18.356;2024-01-15T20:47:32;9.55;;;3.40;;
82022;SDS011;71575;49.908;18.356;2024-01-15T20:53:33;7.22;;;2.42;;